PWSweather.com
Personal Weather Stations
Station Observations
WISCHPK61
Green Bay Schmitt Park, Green Bay, WI 54311

Green Bay Schmitt ParkGreen Bay, WI 54311

Lat: 44.514277, Lon: -87.935067

Elevation: 735

Station Type: Acu Rite Pro Weather Center model 02032C

http://greenbayweathercam.com

High Low Average
Temperature 14.7°F-9.6°C -2.7°F-19.3°C 6.4°F-14.2°C
Dew Point 14.4°F-9.8°C -10.6°F-23.7°C 4.6°F-15.2°C
Winds 4.6 mph 7.4 kmh Calm Calm Calm WNWCalm WNW
Wind Gusts 5.8 mph9.3 kmh -- 1.0 mph1.6 kmh
Humidity 99% 65% 93%
Pressure 29.77 in1008.1 mb 29.24 in990.2 mb -
Precipitation 0.00 in0.0 mm - -
Hour Temp Dew Point Humidity Winds Wind Gusts Pressure Precip Precip Rate Daily Precip Total
12:00 AM 11.1°F-11.6°C 10.9°F-11.7°C 99% Calm Calm -- 29.18 in988.1 mb - 0.00 in0.0 mm 0.22 in5.6 mm
01:00 AM 9.7°F-12.4°C 9.5°F-12.5°C 99% 3.5 mph NW5.6 kmh NW 5.8 mph9.3 kmh 29.24 in990.2 mb - 0.00 in0.0 mm 0.00 in0.0 mm
02:00 AM 7.3°F-13.7°C 7.1°F-13.8°C 99% Calm Calm -- 29.30 in992.2 mb - 0.00 in0.0 mm 0.00 in0.0 mm
03:00 AM 5.2°F-14.9°C 5.0°F-15.0°C 99% 4.6 mph NW7.4 kmh NW 5.8 mph9.3 kmh 29.35 in993.9 mb - 0.00 in0.0 mm 0.00 in0.0 mm
04:00 AM 3.2°F-16.0°C 3.0°F-16.1°C 99% Calm Calm -- 29.39 in995.3 mb - 0.00 in0.0 mm 0.00 in0.0 mm
05:00 AM 1.4°F-17.0°C -5.8°F-21.0°C 71% Calm Calm 5.8 mph9.3 kmh 29.44 in997.0 mb - 0.00 in0.0 mm 0.00 in0.0 mm
06:00 AM -0.2°F-17.9°C -0.4°F-18.0°C 99% Calm Calm -- 29.48 in998.3 mb - 0.00 in0.0 mm 0.00 in0.0 mm
07:00 AM -1.5°F-18.6°C -1.7°F-18.7°C 99% Calm Calm -- 29.54 in1000.3 mb - 0.00 in0.0 mm 0.00 in0.0 mm
08:00 AM -2.7°F-19.3°C -8.7°F-22.6°C 75% Calm Calm -- 29.57 in1001.4 mb - 0.00 in0.0 mm 0.00 in0.0 mm
09:00 AM -1.7°F-18.7°C -10.6°F-23.7°C 65% Calm Calm -- 29.62 in1003.0 mb - 0.00 in0.0 mm 0.00 in0.0 mm
10:00 AM 0.9°F-17.3°C 0.7°F-17.4°C 99% 2.3 mph NW3.7 kmh NW 5.8 mph9.3 kmh 29.66 in1004.4 mb - 0.00 in0.0 mm 0.00 in0.0 mm
11:00 AM 4.2°F-15.4°C 4.0°F-15.6°C 99% Calm Calm -- 29.66 in1004.4 mb - 0.00 in0.0 mm 0.00 in0.0 mm
12:00 PM 9.3°F-12.6°C 9.1°F-12.7°C 99% Calm Calm -- 29.68 in1005.1 mb - 0.00 in0.0 mm 0.00 in0.0 mm
01:00 PM 14.7°F-9.6°C 14.4°F-9.8°C 99% Calm Calm -- 29.70 in1005.8 mb - 0.00 in0.0 mm 0.00 in0.0 mm
02:00 PM 12.3°F-10.9°C 12.1°F-11.1°C 99% Calm Calm -- 29.69 in1005.4 mb - 0.00 in0.0 mm 0.00 in0.0 mm
03:00 PM 12.7°F-10.7°C 12.5°F-10.8°C 99% Calm Calm -- 29.69 in1005.4 mb - 0.00 in0.0 mm 0.00 in0.0 mm
04:00 PM 12.2°F-11.0°C 6.1°F-14.4°C 76% Calm Calm -- 29.69 in1005.4 mb - 0.00 in0.0 mm 0.00 in0.0 mm
05:00 PM 11.1°F-11.6°C 10.9°F-11.7°C 99% Calm Calm -- 29.69 in1005.4 mb - 0.00 in0.0 mm 0.00 in0.0 mm
06:00 PM 9.9°F-12.3°C 9.7°F-12.4°C 99% Calm Calm -- 29.70 in1005.8 mb - 0.00 in0.0 mm 0.00 in0.0 mm
07:00 PM 8.6°F-13.0°C 4.5°F-15.3°C 83% Calm Calm -- 29.71 in1006.1 mb - 0.00 in0.0 mm 0.00 in0.0 mm
08:00 PM 8.2°F-13.2°C 8.0°F-13.3°C 99% Calm Calm -- 29.71 in1006.1 mb - 0.00 in0.0 mm 0.00 in0.0 mm
09:00 PM 8.1°F-13.3°C 7.9°F-13.4°C 99% Calm Calm -- 29.72 in1006.4 mb - 0.00 in0.0 mm 0.00 in0.0 mm
10:00 PM 7.3°F-13.7°C 3.0°F-16.1°C 82% Calm Calm -- 29.74 in1007.1 mb - 0.00 in0.0 mm 0.00 in0.0 mm
11:00 PM 6.8°F-14.0°C 6.6°F-14.1°C 99% Calm Calm -- 29.74 in1007.1 mb - 0.00 in0.0 mm 0.00 in0.0 mm